Time;durP1;ratioP1;P1;durP2;ratioP2;P2;SDS_P1;SDS_P2;PMS_P1;PMS_P2;Temp;Humidity;BMP_temperature;BMP_pressure;BME280_temperature;BME280_humidity;BME280_pressure;Samples;Min_cycle;Max_cycle;Signal;HPM_P1;HPM_P2
2022/11/02 00:00:13;;;;;;;32.40;18.00;;;;;;;6.74;62.99;101246.92;1688406;83;22172;-85
2022/11/02 00:02:40;;;;;;;26.35;14.15;;;;;;;6.70;63.57;101248.77;1671397;84;20978;-82
2022/11/02 00:05:13;;;;;;;19.30;10.98;;;;;;;6.68;63.89;101251.88;1682514;83;20919;-83
2022/11/02 00:07:40;;;;;;;25.20;13.00;;;;;;;6.69;63.71;101243.59;1682246;83;20946;-83
2022/11/02 00:10:08;;;;;;;22.40;12.33;;;;;;;6.69;64.17;101240.53;1699352;82;20928;-84
2022/11/02 00:12:35;;;;;;;23.32;12.55;;;;;;;6.72;64.83;101237.84;1697649;81;21652;-84
2022/11/02 00:15:04;;;;;;;18.65;11.90;;;;;;;6.77;64.74;101244.19;1700454;79;21064;-84
2022/11/02 00:17:32;;;;;;;24.40;12.93;;;;;;;6.81;64.17;101234.91;1699750;79;21115;-82
2022/11/02 00:19:59;;;;;;;28.42;13.95;;;;;;;6.87;64.42;101235.16;1697448;81;20966;-85
2022/11/02 00:22:25;;;;;;;19.48;11.33;;;;;;;6.93;64.30;101231.48;1684295;81;21074;-84
2022/11/02 00:24:52;;;;;;;21.17;11.00;;;;;;;6.95;63.99;101227.06;1688726;83;21260;-83
2022/11/02 00:27:19;;;;;;;21.77;12.40;;;;;;;6.95;63.21;101231.81;1692430;83;21012;-81
2022/11/02 00:29:46;;;;;;;17.55;10.72;;;;;;;6.97;63.30;101232.62;1694933;81;21054;-83
2022/11/02 00:32:12;;;;;;;16.75;10.28;;;;;;;6.96;63.47;101232.66;1689950;82;20877;-82
2022/11/02 00:34:40;;;;;;;21.33;10.28;;;;;;;6.93;63.03;101231.48;1675048;84;20874;-83
2022/11/02 00:37:07;;;;;;;17.90;10.85;;;;;;;6.90;63.19;101227.23;1687987;83;21089;-82
2022/11/02 00:39:35;;;;;;;22.50;12.30;;;;;;;6.86;63.25;101223.02;1683750;83;21115;-82
2022/11/02 00:42:01;;;;;;;16.77;9.50;;;;;;;6.81;63.58;101222.34;1668631;83;21059;-83
2022/11/02 00:44:28;;;;;;;16.37;9.93;;;;;;;6.77;62.92;101224.64;1681665;84;20967;-83
2022/11/02 00:46:55;;;;;;;17.35;9.93;;;;;;;6.71;62.49;101216.56;1673796;83;20908;-83
2022/11/02 00:49:21;;;;;;;15.10;8.90;;;;;;;6.68;62.19;101216.69;1689121;83;21752;-82
2022/11/02 00:51:48;;;;;;;23.55;10.40;;;;;;;6.65;61.99;101218.10;1683217;83;21018;-80
2022/11/02 00:54:15;;;;;;;16.15;10.18;;;;;;;6.61;61.89;101211.29;1673778;84;20992;-83
2022/11/02 00:56:42;;;;;;;23.77;12.23;;;;;;;6.58;61.85;101210.95;1690852;83;20973;-84
2022/11/02 00:59:08;;;;;;;20.82;11.50;;;;;;;6.55;61.76;101208.88;1681766;83;21005;-82
2022/11/02 01:01:36;;;;;;;23.25;11.65;;;;;;;6.54;61.75;101214.55;1686919;83;21472;-84
2022/11/02 01:04:03;;;;;;;26.20;12.43;;;;;;;6.53;62.17;101215.90;1693463;82;20924;-84
2022/11/02 01:06:30;;;;;;;20.50;12.20;;;;;;;6.51;62.51;101222.45;1686198;80;21141;-82
2022/11/02 01:08:57;;;;;;;24.55;13.28;;;;;;;6.50;62.12;101225.13;1682011;83;21023;-83
2022/11/02 01:11:24;;;;;;;21.75;11.73;;;;;;;6.48;62.12;101213.91;1678164;83;21074;-83
2022/11/02 01:13:51;;;;;;;18.62;11.97;;;;;;;6.48;61.92;101208.70;1683265;83;21128;-81
2022/11/02 01:16:19;;;;;;;24.40;12.05;;;;;;;6.47;61.82;101212.19;1680149;84;20991;-82
2022/11/02 01:18:52;;;;;;;20.97;11.30;;;;;;;6.44;61.92;101210.08;1688089;83;21003;-81
2022/11/02 01:21:20;;;;;;;23.62;12.53;;;;;;;6.44;61.92;101205.33;1686031;83;20948;-82
2022/11/02 01:23:48;;;;;;;29.52;13.48;;;;;;;6.42;61.86;101209.73;1686958;83;20992;-80
2022/11/02 01:26:15;;;;;;;23.12;12.53;;;;;;;6.40;61.84;101211.54;1678743;83;21252;-84
2022/11/02 01:28:44;;;;;;;24.77;12.33;;;;;;;6.39;62.00;101213.76;1677762;83;20989;-82
2022/11/02 01:31:12;;;;;;;22.52;11.33;;;;;;;6.40;62.36;101210.23;1677470;79;20973;-82
2022/11/02 01:33:44;;;;;;;18.87;10.48;;;;;;;6.40;62.47;101207.63;1683235;82;21018;-81
2022/11/02 01:36:12;;;;;;;18.37;10.98;;;;;;;6.40;62.41;101203.72;1687262;83;21067;-82
2022/11/02 01:38:41;;;;;;;20.97;11.10;;;;;;;6.44;62.09;101211.38;1689664;82;20873;-82
2022/11/02 01:41:10;;;;;;;18.55;10.38;;;;;;;6.47;61.64;101219.58;1693024;81;21131;-83
2022/11/02 01:43:42;;;;;;;19.32;10.95;;;;;;;6.49;61.38;101209.08;1678641;81;21053;-83
2022/11/02 01:46:15;;;;;;;17.52;10.35;;;;;;;6.53;61.25;101194.59;1672759;81;20945;-82
2022/11/02 01:48:59;;;;;;;28.50;11.57;;;;;;;6.56;61.46;101191.91;1685432;83;20928;-82
2022/11/02 01:51:35;;;;;;;24.30;11.12;;;;;;;6.55;61.77;101189.34;1679435;81;21158;-82
2022/11/02 01:54:07;;;;;;;18.23;9.43;;;;;;;6.53;61.93;101206.78;1679908;84;21079;-83
2022/11/02 01:56:34;;;;;;;18.02;9.00;;;;;;;6.49;61.26;101191.72;1680083;83;20890;-82
2022/11/02 01:59:06;;;;;;;17.50;9.80;;;;;;;6.48;60.95;101189.16;1674337;83;20925;-83
2022/11/02 02:01:33;;;;;;;17.55;9.45;;;;;;;6.45;60.70;101196.63;1679055;84;21354;-84
2022/11/02 02:04:00;;;;;;;14.63;8.33;;;;;;;6.42;60.49;101199.31;1682661;84;21224;-83
2022/11/02 02:06:27;;;;;;;12.50;7.83;;;;;;;6.38;60.52;101200.31;1684160;83;21536;-81
2022/11/02 02:08:56;;;;;;;15.68;8.45;;;;;;;6.36;60.53;101192.58;1674597;83;21079;-82
2022/11/02 02:11:29;;;;;;;10.58;7.65;;;;;;;6.35;60.50;101197.83;1678016;84;20960;-84
2022/11/02 02:14:00;;;;;;;13.10;8.03;;;;;;;6.32;60.36;101197.48;1686601;83;21046;-84
2022/11/02 02:17:01;;;;;;;12.63;8.43;;;;;;;6.30;60.22;101191.47;1674993;83;21095;-83
2022/11/02 02:19:47;;;;;;;14.15;8.18;;;;;;;6.27;60.14;101195.91;1679181;83;20878;-84
2022/11/02 02:22:27;;;;;;;;;;;;;;;6.22;60.20;101199.55;1695057;83;21039;-84
2022/11/02 02:25:42;;;;;;;13.40;7.83;;;;;;;6.18;60.28;101190.13;1690591;84;20122;-82
2022/11/02 02:28:31;;;;;;;12.05;7.53;;;;;;;6.16;60.22;101185.87;1687038;83;20996;-83
2022/11/02 02:31:11;;;;;;;26.93;14.73;;;;;;;6.12;60.18;101185.11;1672988;84;21371;-83
2022/11/02 02:33:51;;;;;;;14.70;8.40;;;;;;;6.08;60.17;101183.96;1669479;85;21036;-82
2022/11/02 02:36:31;;;;;;;14.58;8.25;;;;;;;6.04;60.26;101195.36;1684835;84;20926;-83
2022/11/02 02:39:14;;;;;;;14.28;8.15;;;;;;;6.03;60.20;101204.94;1654444;85;21603;-83
2022/11/02 02:41:49;;;;;;;14.83;8.30;;;;;;;6.01;60.28;101199.77;1669070;84;21016;-83
2022/11/02 02:44:21;;;;;;;12.15;7.45;;;;;;;6.01;60.38;101200.23;1679320;85;21826;-83
2022/11/02 02:46:59;;;;;;;16.80;8.27;;;;;;;5.99;60.29;101195.52;1675363;84;20937;-84
2022/11/02 02:49:41;;;;;;;15.95;11.18;;;;;;;5.97;60.12;101202.06;1665086;84;20920;-82
2022/11/02 02:52:08;;;;;;;19.92;10.85;;;;;;;5.94;60.01;101208.67;1683652;84;21122;-83
2022/11/02 02:54:41;;;;;;;13.10;7.70;;;;;;;5.90;60.09;101195.78;1674322;84;20980;-83
2022/11/02 02:57:13;;;;;;;11.97;7.67;;;;;;;5.88;60.13;101201.48;1679680;84;21152;-83
2022/11/02 02:59:50;;;;;;;11.25;6.60;;;;;;;5.86;60.09;101206.72;1673179;84;21461;-79
2022/11/02 03:02:35;;;;;;;12.10;7.12;;;;;;;5.81;60.08;101200.36;1679612;84;20967;-82
2022/11/02 03:05:04;;;;;;;15.78;7.05;;;;;;;5.79;60.20;101202.16;1686196;84;20995;-83
2022/11/02 03:07:32;;;;;;;12.98;7.30;;;;;;;5.75;60.24;101192.73;1673319;85;21048;-85
2022/11/02 03:10:20;;;;;;;12.45;7.53;;;;;;;5.70;60.31;101184.23;1677583;84;21164;-82
2022/11/02 03:13:10;;;;;;;13.40;7.28;;;;;;;5.65;60.38;101186.13;1640132;86;21015;-84
2022/11/02 03:15:43;;;;;;;13.72;7.87;;;;;;;5.59;60.57;101192.81;1656745;85;21598;-84
2022/11/02 03:18:23;;;;;;;14.50;8.15;;;;;;;5.56;60.75;101190.31;1659528;85;20950;-84
2022/11/02 03:20:59;;;;;;;14.13;6.85;;;;;;;5.54;60.97;101183.00;1649531;86;20970;-84
2022/11/02 03:23:34;;;;;;;12.43;7.08;;;;;;;5.53;60.78;101182.58;1665344;85;21140;-84
2022/11/02 03:26:15;;;;;;;23.75;11.38;;;;;;;5.52;60.65;101184.79;1665119;85;21020;-85
2022/11/02 03:29:06;;;;;;;25.97;15.15;;;;;;;5.51;60.54;101176.11;1665145;85;20926;-84
2022/11/02 03:31:53;;;;;;;12.58;7.95;;;;;;;5.50;60.37;101175.72;1644068;85;20893;-85
2022/11/02 03:34:47;;;;;;;13.35;6.53;;;;;;;5.52;60.16;101166.58;1674021;83;20898;-80
2022/11/02 03:37:35;;;;;;;9.98;6.33;;;;;;;5.54;59.88;101166.94;1664992;85;21200;-83
2022/11/02 03:40:10;;;;;;;13.83;6.20;;;;;;;5.56;59.57;101172.09;1664315;84;20925;-83
2022/11/02 03:42:38;;;;;;;13.95;6.95;;;;;;;5.57;60.63;101171.19;1663871;85;21036;-83
2022/11/02 03:45:10;;;;;;;11.70;7.03;;;;;;;5.58;60.98;101168.55;1663429;84;21494;-84
2022/11/02 03:47:38;;;;;;;17.30;7.87;;;;;;;5.59;61.51;101162.89;1666214;85;20902;-84
2022/11/02 03:50:07;;;;;;;12.65;6.97;;;;;;;5.56;61.75;101159.94;1652907;85;21181;-82
2022/11/02 03:52:36;;;;;;;11.93;7.87;;;;;;;5.55;62.47;101155.61;1663196;85;20998;-84
2022/11/02 03:55:07;;;;;;;13.50;6.83;;;;;;;5.56;63.03;101153.89;1660140;85;21024;-82
2022/11/02 03:57:47;;;;;;;11.65;6.60;;;;;;;5.56;63.47;101140.42;1663716;84;20941;-84
2022/11/02 04:00:18;;;;;;;12.03;7.33;;;;;;;5.58;63.47;101142.95;1659522;85;21032;-84
2022/11/02 04:02:49;;;;;;;17.25;10.20;;;;;;;5.57;63.97;101147.77;1666343;84;21181;-83
2022/11/02 04:05:16;;;;;;;14.73;8.73;;;;;;;5.59;64.12;101140.32;1665565;85;20966;-83
2022/11/02 04:10:33;;;;;;;12.47;8.48;;;;;;;5.71;63.70;101145.58;1660056;85;20942;-85
2022/11/02 04:15:45;;;;;;;11.97;7.78;;;;;;;5.75;63.32;101155.00;1673560;84;21148;-83
2022/11/02 04:20:59;;;;;;;15.95;8.63;;;;;;;5.76;62.66;101142.86;1674592;85;20982;-82
2022/11/02 04:26:11;;;;;;;17.32;8.83;;;;;;;5.80;62.87;101135.33;1671027;81;20948;-84
2022/11/02 04:28:39;;;;;;;16.70;8.10;;;;;;;5.81;62.07;101132.69;1675141;85;21246;-83
2022/11/02 04:31:06;;;;;;;18.12;8.30;;;;;;;5.82;62.26;101125.73;1680451;84;20981;-84
2022/11/02 04:33:37;;;;;;;16.07;9.43;;;;;;;5.81;62.19;101126.19;1681026;84;21106;-84
2022/11/02 04:36:14;;;;;;;14.75;8.95;;;;;;;5.80;61.65;101127.09;1704631;82;21010;-83
2022/11/02 04:38:40;;;;;;;13.65;8.20;;;;;;;5.78;61.43;101122.81;1701964;82;20915;-83
2022/11/02 04:44:01;;;;;;;19.92;9.28;;;;;;;5.73;61.73;101116.46;1712770;82;21366;-84
2022/11/02 04:46:32;;;;;;;15.98;8.38;;;;;;;5.72;62.29;101114.77;1699207;81;21814;-83
2022/11/02 04:49:01;;;;;;;11.85;8.08;;;;;;;5.71;62.31;101110.91;1699973;82;21015;-84
2022/11/02 04:51:30;;;;;;;14.58;8.08;;;;;;;5.70;62.33;101107.46;1719357;81;20908;-83
2022/11/02 04:53:57;;;;;;;17.12;7.90;;;;;;;5.72;62.52;101102.22;1714194;82;21207;-81
2022/11/02 04:56:25;;;;;;;15.60;7.90;;;;;;;5.72;62.33;101103.06;1712440;82;20939;-81
2022/11/02 04:58:56;;;;;;;12.88;7.47;;;;;;;5.74;62.01;101110.38;1708878;82;21358;-82
2022/11/02 05:01:25;;;;;;;14.23;7.85;;;;;;;5.77;61.77;101106.81;1706707;83;21690;-81
2022/11/02 05:03:53;;;;;;;7.30;5.67;;;;;;;5.80;60.73;101111.48;1704549;81;20956;-80
2022/11/02 05:06:22;;;;;;;14.23;6.90;;;;;;;5.83;59.47;101109.23;1703936;82;21254;-83
2022/11/02 05:08:50;;;;;;;12.10;5.58;;;;;;;5.87;58.89;101110.84;1707331;82;20932;-84
2022/11/02 05:11:17;;;;;;;13.13;5.70;;;;;;;5.91;58.16;101103.76;1672446;84;20972;-84
2022/11/02 05:13:44;;;;;;;10.08;5.53;;;;;;;5.94;57.62;101099.34;1686958;83;20916;-84
2022/11/02 05:16:14;;;;;;;9.33;5.20;;;;;;;5.98;57.44;101101.37;1678999;84;20896;-84
2022/11/02 05:18:40;;;;;;;7.78;4.67;;;;;;;6.03;57.04;101102.10;1685408;84;21789;-84
2022/11/02 05:21:08;;;;;;;9.15;5.80;;;;;;;6.07;56.86;101101.10;1685109;83;21157;-85
2022/11/02 05:23:36;;;;;;;11.25;5.35;;;;;;;6.11;56.48;101092.72;1666205;84;21453;-83
2022/11/02 05:26:09;;;;;;;8.73;5.78;;;;;;;6.16;56.25;101098.64;1682592;84;21503;-83
2022/11/02 05:28:39;;;;;;;12.75;5.05;;;;;;;6.20;56.20;101104.99;1686556;83;20904;-84
2022/11/02 05:31:06;;;;;;;10.13;5.35;;;;;;;6.27;56.06;101095.64;1682371;84;21127;-83
2022/11/02 05:33:34;;;;;;;10.35;5.65;;;;;;;6.32;56.02;101096.36;1686783;84;20908;-85
2022/11/02 05:36:04;;;;;;;10.90;5.67;;;;;;;6.38;56.24;101102.63;1682613;84;21042;-85
2022/11/02 05:38:32;;;;;;;12.60;6.15;;;;;;;6.43;56.13;101104.19;1672995;85;20977;-85
2022/11/02 05:40:59;;;;;;;10.72;7.20;;;;;;;6.48;56.14;101109.23;1660777;84;20967;-84
2022/11/02 05:43:28;;;;;;;12.95;6.90;;;;;;;6.52;56.01;101109.53;1657149;85;22840;-85
2022/11/02 05:45:59;;;;;;;12.07;7.25;;;;;;;6.52;55.75;101100.88;1658977;86;21020;-84
2022/11/02 05:48:27;;;;;;;17.80;7.00;;;;;;;6.52;55.59;101105.63;1656953;86;20957;-82
2022/11/02 05:50:59;;;;;;;8.88;6.20;;;;;;;6.54;55.60;101096.00;1660424;85;22119;-84
2022/11/02 05:53:26;;;;;;;10.23;6.50;;;;;;;6.55;55.58;101097.68;1653383;85;21491;-85
2022/11/02 05:55:58;;;;;;;10.00;6.33;;;;;;;6.58;55.41;101096.72;1659886;86;20975;-83
2022/11/02 05:58:25;;;;;;;11.18;6.22;;;;;;;6.60;55.42;101087.97;1652989;85;20946;-84
2022/11/02 06:00:52;;;;;;;12.65;7.08;;;;;;;6.64;55.38;101087.39;1655144;86;20958;-85
2022/11/02 06:03:19;;;;;;;13.85;7.87;;;;;;;6.69;55.39;101080.24;1658537;85;21095;-86
2022/11/02 06:05:46;;;;;;;12.98;7.12;;;;;;;6.75;55.30;101077.87;1657199;84;21033;-83
2022/11/02 06:08:13;;;;;;;13.78;7.22;;;;;;;6.82;55.26;101080.65;1659848;85;21179;-84
2022/11/02 06:10:42;;;;;;;14.15;7.45;;;;;;;6.88;55.20;101083.03;1657129;84;21008;-83
2022/11/02 06:13:08;;;;;;;11.33;6.53;;;;;;;6.97;55.16;101077.94;1657237;85;21036;-84
2022/11/02 06:15:36;;;;;;;15.80;7.20;;;;;;;7.03;55.21;101072.50;1657341;85;20952;-83
2022/11/02 06:18:03;;;;;;;13.20;7.28;;;;;;;7.11;55.19;101070.88;1657400;85;20926;-84
2022/11/02 06:20:31;;;;;;;11.40;6.10;;;;;;;7.17;55.28;101078.48;1659903;85;21155;-85
2022/11/02 06:22:58;;;;;;;16.48;7.05;;;;;;;7.22;54.81;101070.02;1659859;85;21056;-84
2022/11/02 06:25:25;;;;;;;13.03;7.12;;;;;;;7.29;54.63;101071.47;1657992;86;21395;-84
2022/11/02 06:27:55;;;;;;;15.35;7.72;;;;;;;7.34;54.44;101066.94;1660257;86;21056;-83
2022/11/02 06:30:23;;;;;;;15.50;6.83;;;;;;;7.42;54.30;101070.08;1659608;85;20933;-84
2022/11/02 06:35:22;;;;;;;10.72;6.03;;;;;;;7.61;53.71;101065.45;1884961;75;22624;-84
2022/11/02 06:37:49;;;;;;;11.75;6.45;;;;;;;7.62;53.55;101067.13;1861211;77;20883;-84
2022/11/02 06:40:16;;;;;;;14.85;6.92;;;;;;;7.68;53.27;101064.28;1861251;77;21866;-83
2022/11/02 06:42:42;;;;;;;10.38;6.03;;;;;;;7.72;53.14;101059.33;1862576;76;20962;-83
2022/11/02 06:45:10;;;;;;;13.08;8.10;;;;;;;7.76;52.94;101053.08;1862246;77;20997;-83
2022/11/02 06:47:38;;;;;;;13.22;8.65;;;;;;;7.81;52.76;101052.88;1861217;76;20946;-85
2022/11/02 06:50:06;;;;;;;15.53;9.48;;;;;;;7.86;52.58;101045.70;1861259;77;20871;-83
2022/11/02 06:52:34;;;;;;;15.05;7.28;;;;;;;7.93;52.19;101044.52;1861070;77;21271;-85
2022/11/02 06:55:01;;;;;;;15.03;7.55;;;;;;;8.04;52.22;101057.13;1861061;77;21408;-84
2022/11/02 06:57:36;;;;;;;15.48;9.35;;;;;;;8.15;52.06;101040.54;1862044;77;20911;-85
2022/11/02 07:00:05;;;;;;;13.72;8.15;;;;;;;8.30;51.77;101037.27;1861100;77;21412;-83
2022/11/02 07:02:32;;;;;;;11.55;6.78;;;;;;;8.44;51.64;101032.77;1862095;77;20927;-84
2022/11/02 07:05:01;;;;;;;11.30;6.47;;;;;;;8.58;51.57;101029.98;1861214;77;20867;-85
2022/11/02 07:07:28;;;;;;;11.18;6.62;;;;;;;8.71;51.56;101024.59;1861330;77;20891;-84
2022/11/02 07:09:56;;;;;;;13.15;6.85;;;;;;;8.86;51.57;101017.81;1862051;76;20898;-85
2022/11/02 07:12:25;;;;;;;15.03;7.22;;;;;;;9.02;51.24;101025.80;1861869;77;20941;-84
2022/11/02 07:14:52;;;;;;;13.18;7.15;;;;;;;9.17;51.23;101021.61;1861807;76;20927;-85
2022/11/02 07:17:19;;;;;;;12.13;7.12;;;;;;;9.34;51.05;101020.34;1861845;77;21123;-86
2022/11/02 07:19:46;;;;;;;11.53;7.10;;;;;;;9.50;50.83;101018.67;1861518;77;20844;-84
2022/11/02 07:22:13;;;;;;;13.95;7.70;;;;;;;9.67;50.80;101019.16;1861293;77;20907;-86
2022/11/02 07:24:40;;;;;;;16.80;7.08;;;;;;;9.85;50.74;101017.82;1861235;76;20844;-83
2022/11/02 07:27:06;;;;;;;11.15;6.08;;;;;;;10.04;50.52;101010.73;1862246;77;20895;-85
2022/11/02 07:29:33;;;;;;;12.15;6.72;;;;;;;10.22;50.43;101022.03;1862675;77;21220;-87
2022/11/02 07:32:02;;;;;;;10.78;6.42;;;;;;;10.37;50.15;101010.77;1862354;77;20958;-86
2022/11/02 07:34:29;;;;;;;12.33;8.65;;;;;;;10.54;49.74;101009.89;1862350;77;20934;-85
2022/11/02 07:36:55;;;;;;;14.23;8.73;;;;;;;10.71;49.49;101011.58;1862354;77;20997;-83
2022/11/02 07:39:22;;;;;;;18.25;7.85;;;;;;;10.84;48.79;101005.20;1863948;77;20939;-85
2022/11/02 07:41:49;;;;;;;12.33;8.25;;;;;;;10.93;48.37;100998.61;1864007;77;21074;-83
2022/11/02 07:44:15;;;;;;;12.95;7.90;;;;;;;11.00;48.01;101001.27;1863713;77;20840;-84
2022/11/02 07:46:49;;;;;;;12.90;7.17;;;;;;;11.05;47.85;100997.94;1860593;77;20824;-86
2022/11/02 07:49:19;;;;;;;9.90;6.78;;;;;;;11.11;48.11;100999.36;1861294;77;20926;-85
2022/11/02 07:51:45;;;;;;;14.85;6.35;;;;;;;11.13;48.05;100997.02;1830845;77;21341;-85
2022/11/02 07:54:12;;;;;;;15.68;7.72;;;;;;;11.15;48.02;101000.41;1860993;77;21158;-87
2022/11/02 07:56:45;;;;;;;14.55;9.45;;;;;;;11.17;47.92;100995.92;1861100;77;20872;-86
2022/11/02 07:59:13;;;;;;;14.75;8.10;;;;;;;11.19;48.13;100990.59;1861074;76;20883;-85
2022/11/02 08:01:40;;;;;;;10.78;6.53;;;;;;;11.22;48.11;100989.57;1861042;76;21002;-86
2022/11/02 08:04:06;;;;;;;10.95;7.78;;;;;;;11.22;48.21;100985.16;1830150;77;20871;-84
2022/11/02 08:06:34;;;;;;;16.70;7.62;;;;;;;11.27;48.44;100978.33;1860647;77;21800;-84
2022/11/02 08:09:02;;;;;;;13.43;6.50;;;;;;;11.31;48.54;100978.06;1860612;77;20836;-87
2022/11/02 08:11:28;;;;;;;11.28;6.12;;;;;;;11.38;48.35;100966.74;1860975;76;20865;-84
2022/11/02 08:13:55;;;;;;;13.62;6.85;;;;;;;11.44;47.72;100960.30;1860728;77;20891;-82
2022/11/02 08:16:21;;;;;;;12.93;5.83;;;;;;;11.52;47.11;100952.83;1860453;76;20902;-84
2022/11/02 08:18:50;;;;;;;11.57;5.22;;;;;;;11.58;47.25;100950.69;1860529;76;20856;-85
2022/11/02 08:21:17;;;;;;;8.20;4.97;;;;;;;11.65;46.36;100947.23;1860388;77;20864;-85
2022/11/02 08:23:44;;;;;;;16.50;5.87;;;;;;;11.69;45.58;100942.63;1860730;77;20864;-84
2022/11/02 08:26:11;;;;;;;15.43;6.67;;;;;;;11.70;44.66;100946.96;1860656;77;21081;-85
2022/11/02 08:28:40;;;;;;;13.15;7.12;;;;;;;11.70;45.02;100939.08;1860451;77;20891;-82
2022/11/02 08:31:11;;;;;;;11.03;6.25;;;;;;;11.73;45.12;100939.72;1860665;76;21014;-85
2022/11/02 08:33:37;;;;;;;6.30;4.08;;;;;;;11.72;45.10;100938.52;1859697;77;20871;-84
2022/11/02 08:36:07;;;;;;;11.43;4.60;;;;;;;11.66;45.17;100935.78;1860463;77;20839;-84
2022/11/02 08:38:34;;;;;;;7.92;4.33;;;;;;;11.66;45.59;100936.25;1860438;77;21507;-85
2022/11/02 08:41:01;;;;;;;9.90;5.80;;;;;;;11.72;45.75;100931.48;1860669;77;20962;-85
2022/11/02 08:43:27;;;;;;;13.00;7.40;;;;;;;11.87;46.09;100933.62;1860716;77;21779;-85
2022/11/02 08:45:58;;;;;;;14.33;7.28;;;;;;;12.03;46.11;100931.81;1860620;77;21434;-85
2022/11/02 08:48:27;;;;;;;13.70;7.53;;;;;;;12.20;46.03;100920.24;1860456;76;21388;-84
2022/11/02 08:50:55;;;;;;;13.43;10.18;;;;;;;12.31;46.43;100913.00;1860336;77;20974;-82
2022/11/02 08:53:22;;;;;;;10.50;6.37;;;;;;;12.38;46.73;100918.28;1860729;77;20919;-82
2022/11/02 08:55:49;;;;;;;16.10;8.88;;;;;;;12.45;47.19;100916.11;1860857;76;21768;-82
2022/11/02 08:58:17;;;;;;;21.35;13.65;;;;;;;12.53;47.88;100908.55;1860512;77;20868;-84
2022/11/02 09:00:44;;;;;;;20.72;8.48;;;;;;;12.60;48.43;100897.16;1860322;77;21032;-83
2022/11/02 09:03:12;;;;;;;20.35;8.83;;;;;;;12.67;48.92;100895.83;1860139;77;21095;-82
2022/11/02 09:05:42;;;;;;;13.62;8.30;;;;;;;12.76;49.41;100886.49;1860108;77;20906;-85
2022/11/02 09:08:15;;;;;;;13.22;8.38;;;;;;;12.83;49.98;100887.80;1860194;77;21246;-84
2022/11/02 09:10:42;;;;;;;18.77;8.95;;;;;;;12.90;51.19;100891.72;1860179;77;20958;-83
2022/11/02 09:13:12;;;;;;;17.67;8.70;;;;;;;12.93;51.99;100882.30;1860305;76;21351;-83
2022/11/02 09:15:39;;;;;;;17.52;9.23;;;;;;;12.98;52.47;100880.67;1860160;77;20887;-83
2022/11/02 09:18:08;;;;;;;13.53;6.10;;;;;;;12.99;52.54;100883.21;1860364;77;20859;-83
2022/11/02 09:20:35;;;;;;;12.95;7.72;;;;;;;13.02;52.63;100874.27;1860300;77;21267;-84
2022/11/02 09:23:03;;;;;;;19.17;10.28;;;;;;;13.05;52.68;100869.66;1829851;77;21087;-84
2022/11/02 09:25:29;;;;;;;14.43;8.88;;;;;;;13.06;52.68;100875.75;1860191;77;20962;-85
2022/11/02 09:27:57;;;;;;;15.80;7.80;;;;;;;13.07;52.69;100865.58;1860580;77;20884;-84
2022/11/02 09:30:24;;;;;;;16.35;8.55;;;;;;;13.07;52.60;100859.00;1862195;77;20939;-83
2022/11/02 09:32:56;;;;;;;12.60;8.50;;;;;;;13.09;52.66;100851.00;1863163;77;21144;-82
2022/11/02 09:35:25;;;;;;;12.60;5.00;;;;;;;13.12;52.88;100856.09;1856637;77;21184;-86
2022/11/02 09:37:52;;;;;;;8.45;5.25;;;;;;;13.12;53.03;100847.70;1852173;77;21133;-84
2022/11/02 09:40:29;;;;;;;9.60;5.70;;;;;;;13.12;52.85;100848.19;1852206;77;20854;-83
2022/11/02 09:43:19;;;;;;;7.25;4.53;;;;;;;13.09;52.98;100842.62;1852084;77;20897;-82
2022/11/02 09:45:54;;;;;;;11.48;6.08;;;;;;;13.06;53.24;100834.47;1852165;77;21182;-83
2022/11/02 09:48:37;;;;;;;7.30;4.60;;;;;;;12.85;53.46;100798.59;1852444;77;20917;-84
2022/11/02 09:51:13;;;;;;;15.88;9.28;;;;;;;13.03;53.71;100822.00;1852556;77;20933;-84
2022/11/02 09:54:16;;;;;;;8.93;6.40;;;;;;;13.02;54.01;100817.18;1827783;76;20948;-84
2022/11/02 09:56:43;;;;;;;14.45;7.28;;;;;;;13.05;53.99;100816.16;1849976;77;20862;-84
2022/11/02 09:59:23;;;;;;;8.43;5.15;;;;;;;13.00;54.22;100813.80;1849618;76;21140;-86
2022/11/02 10:02:16;;;;;;;7.70;5.40;;;;;;;12.99;54.45;100806.87;1849204;77;20912;-85
2022/11/02 10:05:30;;;;;;;14.85;8.15;;;;;;;13.01;54.37;100808.09;1849430;77;21457;-84
2022/11/02 10:08:19;;;;;;;17.10;8.85;;;;;;;12.96;54.32;100803.14;1849304;77;20885;-84
2022/11/02 10:10:57;;;;;;;20.37;11.00;;;;;;;12.96;54.39;100791.73;1849633;77;20897;-84
2022/11/02 10:13:36;;;;;;;17.45;8.50;;;;;;;12.95;54.55;100798.80;1851470;77;21071;-83
2022/11/02 10:16:20;;;;;;;16.27;7.67;;;;;;;12.97;54.58;100796.08;1850168;77;21042;-80
2022/11/02 10:18:50;;;;;;;23.92;9.75;;;;;;;12.97;54.71;100789.02;1849023;77;20873;-83
2022/11/02 10:21:28;;;;;;;13.60;7.83;;;;;;;12.98;54.78;100789.40;1823994;77;20873;-83
2022/11/02 10:23:57;;;;;;;11.57;6.50;;;;;;;12.99;55.04;100788.44;1849710;77;21034;-83
2022/11/02 10:26:30;;;;;;;11.20;5.50;;;;;;;13.03;55.20;100785.14;1849730;77;21354;-83
2022/11/02 10:29:02;;;;;;;9.23;6.00;;;;;;;13.05;55.53;100777.98;1850151;77;21343;-82
2022/11/02 10:31:31;;;;;;;9.15;5.45;;;;;;;13.04;55.69;100774.48;1850105;77;20862;-84
2022/11/02 10:34:19;;;;;;;10.75;6.85;;;;;;;13.06;55.88;100773.07;1849255;77;20932;-81
2022/11/02 10:37:15;;;;;;;6.37;4.83;;;;;;;13.08;56.16;100775.61;1819604;78;20903;-83
2022/11/02 10:40:09;;;;;;;7.87;5.25;;;;;;;13.04;56.21;100769.70;1824922;78;21462;-83
2022/11/02 10:43:16;;;;;;;10.78;8.10;;;;;;;13.02;56.33;100769.79;1825148;77;20880;-84
2022/11/02 10:46:24;;;;;;;12.07;7.03;;;;;;;12.97;56.58;100761.38;1825532;77;20887;-84
2022/11/02 10:48:56;;;;;;;12.88;6.80;;;;;;;12.96;56.87;100762.78;1825265;78;20986;-83
2022/11/02 10:51:23;;;;;;;9.53;5.95;;;;;;;12.95;57.10;100756.69;1824780;78;20919;-83
2022/11/02 10:53:51;;;;;;;9.85;5.87;;;;;;;12.96;57.16;100757.07;1826953;75;21157;-84
2022/11/02 10:56:25;;;;;;;41.10;26.80;;;;;;;12.95;57.33;100754.53;1800709;75;20828;-83
2022/11/02 10:59:13;;;;;;;15.75;9.63;;;;;;;12.92;57.64;100752.13;1827447;76;21002;-83
2022/11/02 11:01:48;;;;;;;11.40;7.12;;;;;;;12.90;57.91;100747.43;1827802;77;21162;-82
2022/11/02 11:04:27;;;;;;;16.05;9.25;;;;;;;12.89;58.22;100737.83;1815162;77;20891;-84
2022/11/02 11:06:54;;;;;;;13.62;7.05;;;;;;;12.90;58.56;100735.59;1827863;75;21167;-84
2022/11/02 11:09:30;;;;;;;17.05;7.50;;;;;;;12.91;58.94;100731.98;1800836;75;21012;-83
2022/11/02 11:12:00;;;;;;;13.68;8.03;;;;;;;12.92;59.12;100735.01;1827875;75;20847;-83
2022/11/02 11:14:31;;;;;;;14.18;7.17;;;;;;;12.94;59.37;100729.14;1827720;76;20903;-81
2022/11/02 11:17:00;;;;;;;14.85;8.45;;;;;;;12.95;59.53;100725.58;1828204;77;21212;-80
2022/11/02 11:19:35;;;;;;;12.73;6.97;;;;;;;12.96;59.72;100717.58;1828134;75;21128;-82
2022/11/02 11:22:02;;;;;;;14.15;7.03;;;;;;;12.96;59.85;100725.93;1824969;78;20954;-83
2022/11/02 11:24:34;;;;;;;14.30;8.80;;;;;;;12.93;60.02;100714.30;1825589;78;20867;-83
2022/11/02 11:27:14;;;;;;;17.30;9.00;;;;;;;12.92;60.23;100713.95;1825090;78;20887;-83
2022/11/02 11:29:54;;;;;;;16.70;8.68;;;;;;;12.87;60.47;100715.55;1825449;78;20951;-82
2022/11/02 11:32:27;;;;;;;22.77;8.93;;;;;;;12.84;60.77;100708.71;1825219;78;21135;-84
2022/11/02 11:35:03;;;;;;;14.60;8.15;;;;;;;12.83;60.95;100704.89;1799266;78;20961;-83
2022/11/02 11:37:30;;;;;;;14.00;7.95;;;;;;;12.81;61.27;100701.52;1831560;77;20906;-82
2022/11/02 11:40:12;;;;;;;16.37;8.88;;;;;;;12.78;61.57;100696.00;1832490;78;20917;-83
2022/11/02 11:42:40;;;;;;;22.35;13.03;;;;;;;12.81;61.71;100698.89;1832658;77;20838;-81
2022/11/02 11:45:25;;;;;;;20.10;10.70;;;;;;;12.80;61.86;100690.61;1803912;78;21212;-82
2022/11/02 11:47:57;;;;;;;16.62;9.53;;;;;;;12.79;61.96;100698.98;1804624;77;21427;-82
2022/11/02 11:50:24;;;;;;;20.88;13.30;;;;;;;12.77;62.10;100702.67;1832425;77;20933;-83
2022/11/02 11:53:21;;;;;;;21.87;12.60;;;;;;;12.74;62.29;100698.91;1832711;77;21399;-84
2022/11/02 11:55:57;;;;;;;16.37;9.33;;;;;;;12.71;62.40;100691.23;1804677;78;20819;-85
2022/11/02 11:58:30;;;;;;;22.87;10.45;;;;;;;12.69;62.59;100693.96;1832794;77;21135;-84